Time;durP1;ratioP1;P1;durP2;ratioP2;P2;SDS_P1;SDS_P2;PMS_P1;PMS_P2;Temp;Humidity;BMP_temperature;BMP_pressure;BME280_temperature;BME280_humidity;BME280_pressure;Samples;Min_cycle;Max_cycle;Signal;HPM_P1;HPM_P2
2022/10/26 00:00:44;;;;;;;3.63;1.83;;;15.50;99.90;;;;;;7388932;19;20650;-75
2022/10/26 00:03:10;;;;;;;3.20;1.65;;;15.20;99.90;;;;;;7386918;19;20150;-75
2022/10/26 00:05:36;;;;;;;4.53;1.67;;;15.10;99.90;;;;;;7390246;19;20516;-75
2022/10/26 00:08:01;;;;;;;2.08;1.25;;;15.00;99.90;;;;;;7386188;19;20173;-74
2022/10/26 00:10:27;;;;;;;2.55;1.52;;;15.10;99.90;;;;;;7389388;19;20146;-75
2022/10/26 00:12:53;;;;;;;2.45;1.60;;;15.20;99.90;;;;;;7388567;19;20147;-75
2022/10/26 00:15:19;;;;;;;2.33;1.60;;;15.20;99.90;;;;;;7388937;19;20219;-76
2022/10/26 00:17:46;;;;;;;2.58;1.63;;;15.20;99.90;;;;;;7389237;19;20142;-75
2022/10/26 00:20:13;;;;;;;4.32;1.80;;;15.30;99.90;;;;;;7389061;19;20153;-74
2022/10/26 00:22:39;;;;;;;2.65;1.73;;;15.40;99.90;;;;;;7388804;19;20147;-75
2022/10/26 00:25:06;;;;;;;2.65;1.50;;;15.50;99.90;;;;;;7390545;19;20603;-75
2022/10/26 00:27:33;;;;;;;3.20;2.00;;;15.60;99.90;;;;;;7388141;19;20147;-74
2022/10/26 00:30:00;;;;;;;4.07;2.00;;;15.60;99.90;;;;;;7388363;19;20266;-75
2022/10/26 00:32:26;;;;;;;2.85;1.88;;;15.70;99.90;;;;;;7387511;19;20147;-75
2022/10/26 00:34:51;;;;;;;3.60;1.60;;;15.70;99.90;;;;;;7388591;19;20151;-75
2022/10/26 00:37:17;;;;;;;3.70;1.70;;;15.80;99.90;;;;;;7386281;19;20165;-75
2022/10/26 00:39:43;;;;;;;3.30;1.98;;;15.60;99.90;;;;;;7384567;19;20142;-75
2022/10/26 00:42:16;;;;;;;3.20;1.77;;;15.40;99.90;;;;;;7385533;19;20671;-74
2022/10/26 00:44:47;;;;;;;4.30;2.10;;;15.60;99.90;;;;;;7387323;19;20148;-75
2022/10/26 00:47:21;;;;;;;4.05;1.85;;;15.60;99.90;;;;;;7388899;19;20138;-75
2022/10/26 00:49:48;;;;;;;2.25;1.75;;;15.60;99.90;;;;;;7388599;19;20139;-73
2022/10/26 00:52:16;;;;;;;4.28;1.73;;;15.50;99.90;;;;;;7390717;19;20146;-74
2022/10/26 00:54:43;;;;;;;3.78;1.73;;;15.50;99.90;;;;;;7388549;19;20142;-74
2022/10/26 00:57:14;;;;;;;5.28;1.63;;;15.50;99.90;;;;;;7389120;19;20135;-74
2022/10/26 00:59:42;;;;;;;3.45;1.65;;;15.50;99.90;;;;;;7390414;19;20355;-74
2022/10/26 01:02:11;;;;;;;3.10;1.58;;;15.60;99.90;;;;;;7383300;19;20150;-75
2022/10/26 01:04:37;;;;;;;3.70;1.63;;;15.60;99.90;;;;;;7390648;19;20182;-75
2022/10/26 01:07:04;;;;;;;7.07;1.60;;;15.60;99.90;;;;;;7394025;19;20157;-75
2022/10/26 01:09:31;;;;;;;3.15;1.77;;;15.60;99.90;;;;;;7394659;19;20151;-74
2022/10/26 01:11:57;;;;;;;3.45;2.05;;;15.70;99.90;;;;;;7392156;19;20142;-75
2022/10/26 01:14:26;;;;;;;3.65;1.70;;;15.70;99.90;;;;;;7390077;19;20144;-73
2022/10/26 01:17:17;;;;;;;5.03;1.50;;;15.70;99.90;;;;;;7383738;19;20170;-75
2022/10/26 01:20:16;;;;;;;2.00;1.42;;;15.40;99.90;;;;;;7385498;19;20489;-75
2022/10/26 01:23:08;;;;;;;5.20;1.83;;;15.30;99.90;;;;;;7379022;19;20494;-75
2022/10/26 01:25:37;;;;;;;3.83;1.80;;;15.10;99.90;;;;;;7386154;19;20139;-74
2022/10/26 01:28:14;;;;;;;3.42;1.70;;;14.80;99.90;;;;;;7389267;19;20611;-75
2022/10/26 01:30:44;;;;;;;3.20;1.65;;;14.70;99.90;;;;;;7387619;19;20201;-74
2022/10/26 01:33:22;;;;;;;3.80;1.85;;;15.00;99.90;;;;;;7388386;19;20607;-75
2022/10/26 01:35:53;;;;;;;4.18;2.05;;;15.20;99.90;;;;;;7384672;19;20161;-76
2022/10/26 01:38:47;;;;;;;6.15;2.00;;;15.00;99.90;;;;;;7387025;19;20135;-73
2022/10/26 01:41:17;;;;;;;1.73;1.30;;;15.00;99.90;;;;;;7385523;19;20138;-75
2022/10/26 01:43:49;;;;;;;2.70;1.88;;;15.00;99.90;;;;;;7388800;19;20134;-75
2022/10/26 01:46:17;;;;;;;2.10;1.52;;;15.00;99.90;;;;;;7386395;19;20135;-74
2022/10/26 01:48:44;;;;;;;5.32;1.85;;;15.20;99.90;;;;;;7383596;19;20150;-74
2022/10/26 01:51:12;;;;;;;4.25;1.75;;;15.40;99.90;;;;;;7386859;19;20580;-74
2022/10/26 01:53:44;;;;;;;6.32;2.33;;;15.50;99.90;;;;;;7381016;19;20436;-75
2022/10/26 01:56:18;;;;;;;4.82;2.15;;;15.40;99.90;;;;;;7383386;19;20202;-75
2022/10/26 01:58:49;;;;;;;4.68;2.20;;;15.20;99.90;;;;;;7387993;19;20138;-76
2022/10/26 02:01:47;;;;;;;3.72;1.92;;;15.30;99.90;;;;;;7386993;19;20130;-75
2022/10/26 02:04:40;;;;;;;5.63;2.58;;;15.50;99.90;;;;;;7383133;19;20175;-74
2022/10/26 02:07:54;;;;;;;5.85;2.47;;;15.40;99.90;;;;;;7384746;19;20166;-74
2022/10/26 02:10:29;;;;;;;2.65;2.00;;;15.30;99.90;;;;;;7386921;19;20135;-74
2022/10/26 02:13:19;;;;;;;3.78;2.13;;;15.30;99.90;;;;;;7388814;19;20179;-75
2022/10/26 02:15:55;;;;;;;4.35;2.00;;;15.30;99.90;;;;;;7390804;19;20164;-75
2022/10/26 02:18:28;;;;;;;4.05;2.13;;;15.40;99.90;;;;;;7391646;19;20142;-75
2022/10/26 02:20:58;;;;;;;5.35;2.15;;;15.30;99.90;;;;;;7392157;19;20142;-75
2022/10/26 02:23:25;;;;;;;4.90;1.92;;;15.30;99.90;;;;;;7392356;19;20163;-75
2022/10/26 02:25:56;;;;;;;3.75;1.75;;;15.00;99.90;;;;;;7392927;19;20147;-76
2022/10/26 02:28:27;;;;;;;3.88;2.20;;;15.10;99.90;;;;;;7391615;19;20604;-74
2022/10/26 02:30:55;;;;;;;6.68;2.00;;;15.20;99.90;;;;;;7394735;19;20511;-75
2022/10/26 02:33:23;;;;;;;5.57;1.95;;;15.30;99.90;;;;;;7394085;19;20142;-75
2022/10/26 02:35:53;;;;;;;5.07;2.65;;;15.30;99.90;;;;;;7391581;19;20169;-75
2022/10/26 02:38:20;;;;;;;4.88;2.13;;;15.30;99.90;;;;;;7392083;19;20138;-75
2022/10/26 02:40:50;;;;;;;3.13;2.22;;;14.90;99.90;;;;;;7390808;19;20158;-75
2022/10/26 02:43:20;;;;;;;3.40;2.03;;;14.90;99.90;;;;;;7394525;19;20131;-76
2022/10/26 02:46:07;;;;;;;4.65;2.40;;;15.00;99.90;;;;;;7393886;19;20215;-78
2022/10/26 02:48:34;;;;;;;6.05;2.30;;;15.10;99.90;;;;;;7396621;19;20146;-77
2022/10/26 02:51:11;;;;;;;4.55;2.10;;;14.90;99.90;;;;;;7398443;19;20131;-78
2022/10/26 02:53:52;;;;;;;3.85;1.98;;;14.70;99.90;;;;;;7392012;19;20126;-78
2022/10/26 02:56:26;;;;;;;3.33;1.88;;;14.80;99.90;;;;;;7393608;19;20142;-78
2022/10/26 02:58:58;;;;;;;2.22;1.65;;;15.00;99.90;;;;;;7391917;19;20456;-78
2022/10/26 03:01:24;;;;;;;4.22;1.83;;;14.70;99.90;;;;;;7389204;19;20624;-76
2022/10/26 03:03:50;;;;;;;2.70;1.90;;;14.60;99.90;;;;;;7391017;19;20603;-76
2022/10/26 03:06:23;;;;;;;4.47;1.83;;;14.30;99.90;;;;;;7391065;19;20251;-76
2022/10/26 03:08:49;;;;;;;3.15;1.65;;;14.60;99.90;;;;;;7390286;19;20161;-76
2022/10/26 03:11:16;;;;;;;2.97;1.60;;;14.80;99.90;;;;;;7393483;19;20130;-75
2022/10/26 03:13:42;;;;;;;4.72;1.67;;;15.00;99.90;;;;;;7391442;19;20139;-76
2022/10/26 03:16:08;;;;;;;6.30;1.92;;;14.90;99.90;;;;;;7391204;19;20268;-75
2022/10/26 03:18:34;;;;;;;4.03;2.10;;;15.00;99.90;;;;;;7391996;19;20163;-75
2022/10/26 03:20:59;;;;;;;3.92;2.38;;;15.10;99.90;;;;;;7390313;19;20146;-75
2022/10/26 03:23:25;;;;;;;4.70;2.42;;;15.20;99.90;;;;;;7390724;19;20149;-75
2022/10/26 03:25:55;;;;;;;5.07;2.42;;;14.80;99.90;;;;;;7390962;19;20169;-75
2022/10/26 03:28:21;;;;;;;4.90;2.22;;;14.80;99.90;;;;;;7390221;19;20150;-75
2022/10/26 03:30:47;;;;;;;4.85;2.22;;;15.00;99.90;;;;;;7390316;19;20138;-75
2022/10/26 03:33:13;;;;;;;4.28;2.08;;;15.00;99.90;;;;;;7391755;19;20527;-76
2022/10/26 03:35:38;;;;;;;5.13;2.40;;;15.00;99.90;;;;;;7391191;19;20536;-75
2022/10/26 03:38:04;;;;;;;5.18;1.90;;;15.10;99.90;;;;;;7389010;19;20596;-76
2022/10/26 03:40:30;;;;;;;3.78;1.70;;;14.90;99.90;;;;;;7389667;19;20149;-76
2022/10/26 03:42:56;;;;;;;2.55;1.67;;;14.90;99.90;;;;;;7389880;19;20687;-76
2022/10/26 03:45:21;;;;;;;3.58;1.90;;;15.00;99.90;;;;;;7390411;19;20167;-75
2022/10/26 03:47:48;;;;;;;2.85;1.85;;;15.00;99.90;;;;;;7390153;19;20134;-76
2022/10/26 03:50:16;;;;;;;3.22;1.90;;;14.70;99.90;;;;;;7389063;19;20146;-76
2022/10/26 03:52:42;;;;;;;4.40;2.22;;;15.10;99.90;;;;;;7389981;19;20145;-76
2022/10/26 03:55:09;;;;;;;3.80;2.10;;;15.10;99.90;;;;;;7389681;19;20605;-75
2022/10/26 03:57:43;;;;;;;5.00;1.77;;;15.20;99.90;;;;;;7391275;19;20210;-76
2022/10/26 04:00:11;;;;;;;2.80;1.85;;;15.30;99.90;;;;;;7389515;19;20138;-75
2022/10/26 04:02:37;;;;;;;3.05;1.88;;;15.40;99.90;;;;;;7389070;19;20154;-75
2022/10/26 04:05:03;;;;;;;3.10;1.90;;;15.50;99.90;;;;;;7389178;19;20148;-76
2022/10/26 04:07:29;;;;;;;4.72;2.42;;;15.40;99.90;;;;;;7387558;19;20150;-74
2022/10/26 04:09:54;;;;;;;4.28;1.80;;;15.40;99.90;;;;;;7390462;19;20134;-75
2022/10/26 04:12:20;;;;;;;4.57;2.00;;;15.40;99.90;;;;;;7388606;19;20515;-74
2022/10/26 04:14:46;;;;;;;3.53;1.75;;;15.40;99.90;;;;;;7390557;19;20497;-75
2022/10/26 04:17:12;;;;;;;3.80;1.88;;;15.40;99.90;;;;;;7388161;19;20150;-75
2022/10/26 04:19:38;;;;;;;5.13;2.28;;;15.30;99.90;;;;;;7388574;19;20134;-75
2022/10/26 04:22:04;;;;;;;3.58;2.33;;;15.30;99.90;;;;;;7388815;19;20142;-75
2022/10/26 04:24:30;;;;;;;7.47;2.00;;;15.20;99.90;;;;;;7390497;19;20141;-74
2022/10/26 04:26:55;;;;;;;5.43;2.22;;;15.10;99.90;;;;;;7390563;19;20150;-75
2022/10/26 04:29:21;;;;;;;5.60;2.38;;;14.90;99.90;;;;;;7388224;19;20606;-75
2022/10/26 04:31:47;;;;;;;3.95;2.15;;;15.00;99.90;;;;;;7390999;19;20131;-74
2022/10/26 04:34:13;;;;;;;2.50;1.90;;;14.80;99.90;;;;;;7388376;19;20647;-75
2022/10/26 04:36:38;;;;;;;3.33;1.80;;;14.80;99.90;;;;;;7390547;19;20616;-76
2022/10/26 04:39:04;;;;;;;3.38;1.70;;;14.80;99.90;;;;;;7387866;19;20143;-76
2022/10/26 04:41:30;;;;;;;4.13;2.22;;;14.70;99.90;;;;;;7390221;19;20202;-76
2022/10/26 04:43:56;;;;;;;2.92;1.63;;;14.60;99.90;;;;;;7389003;19;20142;-75
2022/10/26 04:46:22;;;;;;;4.95;2.30;;;14.70;99.90;;;;;;7388182;19;20623;-76
2022/10/26 04:48:47;;;;;;;3.45;2.00;;;15.00;99.90;;;;;;7386207;19;20490;-76
2022/10/26 04:51:13;;;;;;;5.90;2.28;;;15.10;99.90;;;;;;7390363;19;20142;-75
2022/10/26 04:53:39;;;;;;;6.13;2.20;;;15.10;99.90;;;;;;7388758;19;20155;-75
2022/10/26 04:56:05;;;;;;;12.43;2.90;;;15.30;99.90;;;;;;7388413;19;20159;-74
2022/10/26 04:58:30;;;;;;;4.35;1.98;;;15.30;99.90;;;;;;7388701;19;20164;-75
2022/10/26 05:00:56;;;;;;;4.60;2.00;;;15.60;99.90;;;;;;7389289;19;20159;-75
2022/10/26 05:03:23;;;;;;;3.88;2.25;;;15.30;99.90;;;;;;7394568;19;20165;-76
2022/10/26 05:05:49;;;;;;;3.53;1.98;;;15.10;99.90;;;;;;7393785;19;20149;-75
2022/10/26 05:08:15;;;;;;;4.72;1.88;;;15.10;99.90;;;;;;7391179;19;20177;-74
2022/10/26 05:10:41;;;;;;;4.28;2.10;;;15.00;99.90;;;;;;7395034;19;20551;-75
2022/10/26 05:13:08;;;;;;;5.65;2.33;;;15.10;99.90;;;;;;7397832;19;20142;-74
2022/10/26 05:15:34;;;;;;;4.25;2.42;;;15.30;99.90;;;;;;7389727;19;20158;-75
2022/10/26 05:18:02;;;;;;;5.97;2.50;;;15.50;99.90;;;;;;7389574;19;20230;-75
2022/10/26 05:20:30;;;;;;;3.63;2.35;;;15.60;99.90;;;;;;7388745;19;20135;-76
2022/10/26 05:23:01;;;;;;;4.93;2.38;;;15.60;99.90;;;;;;7386076;19;20615;-75
2022/10/26 05:25:29;;;;;;;2.90;2.00;;;15.50;99.90;;;;;;7386352;19;20177;-75
2022/10/26 05:28:03;;;;;;;4.05;2.70;;;15.50;99.90;;;;;;7385570;19;20147;-76
2022/10/26 05:30:30;;;;;;;4.35;2.00;;;15.30;99.90;;;;;;7386539;19;20154;-76
2022/10/26 05:32:57;;;;;;;5.38;2.17;;;15.40;99.90;;;;;;7385314;19;20519;-76
2022/10/26 05:35:24;;;;;;;3.85;2.20;;;15.10;99.90;;;;;;7385723;19;20166;-75
2022/10/26 05:37:51;;;;;;;3.65;2.10;;;15.10;99.90;;;;;;7386836;19;20242;-76
2022/10/26 05:40:17;;;;;;;4.53;2.03;;;15.20;99.90;;;;;;7386993;19;20150;-75
2022/10/26 05:42:43;;;;;;;5.43;2.53;;;15.30;99.90;;;;;;7387457;19;20138;-77
2022/10/26 05:45:09;;;;;;;3.60;2.40;;;15.50;99.90;;;;;;7389998;19;20636;-77
2022/10/26 05:47:43;;;;;;;3.92;2.13;;;15.40;99.90;;;;;;7392198;19;20138;-76
2022/10/26 05:50:10;;;;;;;4.75;2.35;;;15.40;99.90;;;;;;7395262;19;20163;-76
2022/10/26 05:52:43;;;;;;;4.20;2.40;;;15.60;99.90;;;;;;7394772;19;20150;-75
2022/10/26 05:55:11;;;;;;;2.28;1.88;;;15.70;99.90;;;;;;7394659;19;20126;-76
2022/10/26 05:57:38;;;;;;;3.78;2.08;;;15.60;99.90;;;;;;7394023;19;20170;-77
2022/10/26 06:00:09;;;;;;;4.85;2.38;;;15.70;99.90;;;;;;7397729;19;20139;-76
2022/10/26 06:02:50;;;;;;;8.30;3.42;;;15.70;99.90;;;;;;7395925;19;20158;-80
2022/10/26 06:05:25;;;;;;;4.28;2.53;;;15.50;99.90;;;;;;7393657;19;20174;-76
2022/10/26 06:07:51;;;;;;;4.72;2.05;;;15.60;99.90;;;;;;7389118;19;20188;-77
2022/10/26 06:10:17;;;;;;;5.72;2.00;;;15.40;99.90;;;;;;7392553;19;20158;-78
2022/10/26 06:12:44;;;;;;;3.17;1.90;;;15.30;99.90;;;;;;7393890;19;20135;-76
2022/10/26 06:15:19;;;;;;;3.45;1.85;;;15.30;99.90;;;;;;7395774;19;20134;-76
2022/10/26 06:18:09;;;;;;;4.13;1.95;;;15.30;99.90;;;;;;7393762;19;20197;-77
2022/10/26 06:20:46;;;;;;;2.72;1.85;;;15.40;99.90;;;;;;7392212;19;20134;-77
2022/10/26 06:23:39;;;;;;;10.20;6.70;;;15.50;99.90;;;;;;7392920;19;20592;-76
2022/10/26 06:26:25;;;;;;;4.88;2.88;;;15.30;99.90;;;;;;7392405;19;20162;-76
2022/10/26 06:29:21;;;;;;;6.30;3.28;;;15.50;99.90;;;;;;7393987;19;20591;-77
2022/10/26 06:31:47;;;;;;;5.18;2.70;;;15.60;99.90;;;;;;7399073;19;20156;-76
2022/10/26 06:34:21;;;;;;;4.40;1.70;;;15.70;99.90;;;;;;7395355;19;20463;-77
2022/10/26 06:36:49;;;;;;;7.25;3.83;;;15.30;99.90;;;;;;7393514;19;20133;-77
2022/10/26 06:39:16;;;;;;;8.93;5.20;;;15.20;99.90;;;;;;7390396;19;20151;-77
2022/10/26 06:41:42;;;;;;;5.72;3.17;;;15.20;99.90;;;;;;7390780;19;20145;-75
2022/10/26 06:44:11;;;;;;;4.93;2.30;;;15.40;99.90;;;;;;7392787;19;20157;-78
2022/10/26 06:46:42;;;;;;;3.10;2.30;;;15.30;99.90;;;;;;7393237;19;20247;-77
2022/10/26 06:49:28;;;;;;;6.75;3.17;;;15.40;99.90;;;;;;7394589;19;20163;-77
2022/10/26 06:52:31;;;;;;;5.43;2.15;;;15.50;99.90;;;;;;7395286;19;20161;-77
2022/10/26 06:54:58;;;;;;;5.00;2.88;;;15.50;99.90;;;;;;7395521;19;20138;-76
2022/10/26 06:57:35;;;;;;;4.00;2.22;;;15.60;99.90;;;;;;7395634;19;20183;-76
2022/10/26 07:00:21;;;;;;;4.03;2.47;;;15.60;99.90;;;;;;7392476;19;20564;-75
2022/10/26 07:02:48;;;;;;;4.80;2.85;;;15.50;99.90;;;;;;7399050;19;20147;-76
2022/10/26 07:05:14;;;;;;;4.13;2.55;;;15.60;99.90;;;;;;7394249;19;20158;-77
2022/10/26 07:07:45;;;;;;;3.92;2.40;;;15.60;99.90;;;;;;7393086;19;20154;-76
2022/10/26 07:10:12;;;;;;;3.72;2.30;;;15.70;99.90;;;;;;7394397;19;20146;-77
2022/10/26 07:12:38;;;;;;;5.03;2.42;;;15.60;99.90;;;;;;7395618;19;20131;-77
2022/10/26 07:15:04;;;;;;;4.70;2.50;;;15.90;99.90;;;;;;7401749;19;20159;-76
2022/10/26 07:17:30;;;;;;;6.30;2.90;;;15.90;99.90;;;;;;7398269;19;20142;-77
2022/10/26 07:19:56;;;;;;;5.90;2.58;;;15.90;99.90;;;;;;7395331;19;20150;-78
2022/10/26 07:22:24;;;;;;;8.07;3.85;;;15.90;99.90;;;;;;7393096;19;20138;-77
2022/10/26 07:24:50;;;;;;;7.05;3.63;;;15.80;99.90;;;;;;7392696;19;20194;-77
2022/10/26 07:27:20;;;;;;;8.75;2.95;;;15.60;99.90;;;;;;7398147;19;20131;-77
2022/10/26 07:29:45;;;;;;;9.85;3.72;;;15.70;99.90;;;;;;7395640;19;20506;-77
2022/10/26 07:32:11;;;;;;;5.63;3.92;;;15.80;99.90;;;;;;7398964;19;20227;-77
2022/10/26 07:34:37;;;;;;;6.05;3.92;;;15.70;99.90;;;;;;7390083;19;20138;-78
2022/10/26 07:37:03;;;;;;;8.95;4.15;;;15.70;99.90;;;;;;7392008;19;20238;-75
2022/10/26 07:39:31;;;;;;;4.90;3.53;;;15.80;99.90;;;;;;7392357;19;20616;-75
2022/10/26 07:41:57;;;;;;;9.25;3.92;;;15.90;99.90;;;;;;7391518;19;20184;-76
2022/10/26 07:44:23;;;;;;;6.88;3.75;;;15.90;99.90;;;;;;7391888;19;20154;-76
2022/10/26 07:46:49;;;;;;;3.97;2.33;;;15.80;99.90;;;;;;7392615;19;20147;-75
2022/10/26 07:49:15;;;;;;;5.95;2.00;;;15.90;99.90;;;;;;7393756;19;20482;-75
2022/10/26 07:51:41;;;;;;;4.20;1.90;;;16.00;99.90;;;;;;7394571;19;20130;-74
2022/10/26 07:54:07;;;;;;;4.47;1.90;;;16.00;99.90;;;;;;7397222;19;20161;-75
2022/10/26 07:56:34;;;;;;;4.70;1.95;;;16.10;99.90;;;;;;7392472;19;20183;-75
2022/10/26 07:59:00;;;;;;;3.13;1.60;;;16.20;99.90;;;;;;7391109;19;20135;-75
2022/10/26 08:01:26;;;;;;;5.53;2.25;;;16.30;99.90;;;;;;7392293;19;20514;-75
2022/10/26 08:03:53;;;;;;;6.20;3.33;;;16.40;99.90;;;;;;7391196;19;20769;-75
2022/10/26 08:06:22;;;;;;;4.50;2.80;;;16.50;99.90;;;;;;7391388;19;20169;-76
2022/10/26 08:08:48;;;;;;;6.45;2.85;;;16.60;99.90;;;;;;7390944;19;20130;-75
2022/10/26 08:11:16;;;;;;;5.85;2.60;;;16.70;99.90;;;;;;7390993;19;20147;-75
2022/10/26 08:13:42;;;;;;;8.02;2.80;;;16.80;99.90;;;;;;7390692;19;20498;-75
2022/10/26 08:16:08;;;;;;;6.38;2.50;;;16.70;99.90;;;;;;7391460;19;20129;-76
2022/10/26 08:18:34;;;;;;;7.78;3.20;;;16.90;99.90;;;;;;7393322;19;20139;-77
2022/10/26 08:21:03;;;;;;;6.03;2.47;;;17.00;99.90;;;;;;7391408;19;20150;-74
2022/10/26 08:23:30;;;;;;;6.63;2.17;;;17.00;99.90;;;;;;7390690;19;20146;-76
2022/10/26 08:25:59;;;;;;;6.10;2.80;;;16.90;99.90;;;;;;7392796;19;20142;-75
2022/10/26 08:28:26;;;;;;;4.03;1.83;;;16.90;99.90;;;;;;7389774;19;20168;-76
2022/10/26 08:30:53;;;;;;;4.55;1.77;;;17.20;99.90;;;;;;7390542;19;20183;-75
2022/10/26 08:33:18;;;;;;;4.18;2.30;;;17.10;99.90;;;;;;7392619;19;20135;-75
2022/10/26 08:35:44;;;;;;;8.30;2.30;;;17.10;99.90;;;;;;7391131;19;20158;-76
2022/10/26 08:38:10;;;;;;;6.50;2.00;;;17.00;99.90;;;;;;7391932;19;20143;-75
2022/10/26 08:40:38;;;;;;;5.32;2.10;;;17.00;99.90;;;;;;7389150;19;20177;-75
2022/10/26 08:43:16;;;;;;;3.67;1.63;;;17.20;99.90;;;;;;7390381;19;20145;-77
2022/10/26 08:46:34;;;;;;;4.50;2.10;;;17.00;99.90;;;;;;7388911;19;20154;-75
2022/10/26 08:49:10;;;;;;;5.22;2.83;;;17.10;99.90;;;;;;7389060;19;20158;-76
2022/10/26 08:51:38;;;;;;;3.90;1.70;;;16.90;99.90;;;;;;7391358;19;20148;-75
2022/10/26 08:54:16;;;;;;;5.10;2.10;;;17.10;99.90;;;;;;7388503;19;20134;-75
2022/10/26 08:56:49;;;;;;;2.85;1.90;;;17.00;99.90;;;;;;7390566;19;20122;-76
2022/10/26 08:59:35;;;;;;;3.03;1.95;;;16.90;99.90;;;;;;7390114;19;20576;-75
2022/10/26 09:02:01;;;;;;;4.05;2.10;;;16.90;99.90;;;;;;7389145;19;20131;-76
2022/10/26 09:04:29;;;;;;;4.82;2.45;;;17.10;99.90;;;;;;7390992;19;20154;-76
2022/10/26 09:07:07;;;;;;;4.38;1.92;;;17.10;99.90;;;;;;7389167;19;20158;-75
2022/10/26 09:09:54;;;;;;;5.30;2.35;;;17.20;99.90;;;;;;7392135;19;20134;-76
2022/10/26 09:12:33;;;;;;;4.82;2.22;;;17.30;99.90;;;;;;7392509;19;20210;-76
2022/10/26 09:15:20;;;;;;;7.05;1.70;;;17.40;99.90;;;;;;7392999;19;20144;-75
2022/10/26 09:18:20;;;;;;;3.50;1.88;;;17.40;99.90;;;;;;7390382;19;20139;-76
2022/10/26 09:21:06;;;;;;;4.78;1.85;;;17.50;99.90;;;;;;7390132;19;20150;-75
2022/10/26 09:23:56;;;;;;;3.00;1.92;;;17.60;99.90;;;;;;7402905;19;20161;-76
2022/10/26 09:26:30;;;;;;;4.95;2.20;;;17.70;99.90;;;;;;7405669;19;20134;-76
2022/10/26 09:29:02;;;;;;;6.07;1.83;;;17.70;99.90;;;;;;7403337;19;20161;-76
2022/10/26 09:31:30;;;;;;;7.70;2.67;;;17.80;99.90;;;;;;7405121;19;20147;-75
2022/10/26 09:34:01;;;;;;;5.47;2.35;;;17.90;99.90;;;;;;7403466;19;20139;-76
2022/10/26 09:36:27;;;;;;;6.25;3.60;;;17.90;99.90;;;;;;7403877;19;20162;-75
2022/10/26 09:39:22;;;;;;;6.25;4.00;;;18.00;99.90;;;;;;7403365;19;20155;-74
2022/10/26 09:41:57;;;;;;;4.13;2.15;;;18.20;99.90;;;;;;7404190;19;20143;-75
2022/10/26 09:44:58;;;;;;;5.60;2.10;;;18.50;99.90;;;;;;7406554;19;20524;-76
2022/10/26 09:47:41;;;;;;;4.05;2.38;;;18.50;99.90;;;;;;7402693;19;20183;-75
2022/10/26 09:50:07;;;;;;;3.95;1.88;;;18.50;99.90;;;;;;7399144;19;20179;-77
2022/10/26 09:52:32;;;;;;;3.22;1.45;;;18.60;99.90;;;;;;7400046;19;20123;-76
2022/10/26 09:54:58;;;;;;;4.60;1.85;;;18.60;99.90;;;;;;7397085;19;20143;-75
2022/10/26 09:57:24;;;;;;;4.22;1.80;;;18.70;99.90;;;;;;7396447;19;20526;-76
2022/10/26 09:59:54;;;;;;;5.30;1.75;;;18.70;99.90;;;;;;7395107;19;20131;-76
2022/10/26 10:02:38;;;;;;;3.72;1.67;;;18.70;99.90;;;;;;7395571;19;20154;-77
2022/10/26 10:05:24;;;;;;;3.83;1.90;;;18.90;99.90;;;;;;7399828;19;20138;-76
2022/10/26 10:07:50;;;;;;;3.22;2.10;;;18.90;99.90;;;;;;7393186;19;20483;-77
2022/10/26 10:10:17;;;;;;;4.93;1.58;;;19.00;99.90;;;;;;7396257;19;20151;-75
2022/10/26 10:12:44;;;;;;;3.78;1.70;;;18.90;99.90;;;;;;7397701;19;20138;-76
2022/10/26 10:15:23;;;;;;;5.13;2.40;;;18.90;99.90;;;;;;7397411;19;20592;-76
2022/10/26 10:17:56;;;;;;;6.68;3.10;;;18.90;99.90;;;;;;7396875;19;20134;-78
2022/10/26 10:20:33;;;;;;;4.72;2.00;;;18.80;99.90;;;;;;7394326;19;20135;-77
2022/10/26 10:23:02;;;;;;;5.95;2.33;;;18.90;99.90;;;;;;7395656;19;20157;-76
2022/10/26 10:25:36;;;;;;;4.47;2.72;;;18.90;99.90;;;;;;7393613;19;20158;-77
2022/10/26 10:28:21;;;;;;;5.07;1.85;;;18.90;99.90;;;;;;7394830;19;20150;-75
2022/10/26 10:31:01;;;;;;;5.45;2.08;;;19.00;99.90;;;;;;7392709;19;20151;-76
2022/10/26 10:33:33;;;;;;;2.47;1.63;;;19.20;99.90;;;;;;7392807;19;20139;-76
2022/10/26 10:36:00;;;;;;;4.85;1.55;;;19.40;99.90;;;;;;7387879;19;20131;-76
2022/10/26 10:38:26;;;;;;;2.97;1.45;;;19.50;99.90;;;;;;7390399;19;20138;-75
2022/10/26 10:40:57;;;;;;;5.25;1.80;;;19.70;99.90;;;;;;7390779;19;20198;-75
2022/10/26 10:43:23;;;;;;;4.10;1.65;;;19.80;99.90;;;;;;7394451;19;20290;-75
2022/10/26 10:45:51;;;;;;;4.20;1.60;;;19.80;99.90;;;;;;7394856;19;20387;-76
2022/10/26 10:48:23;;;;;;;4.53;1.45;;;19.70;99.90;;;;;;7392012;19;20168;-75
2022/10/26 10:51:09;;;;;;;3.47;1.52;;;19.60;99.90;;;;;;7393799;19;20173;-76
2022/10/26 10:53:55;;;;;;;3.78;1.92;;;19.70;99.90;;;;;;7392406;19;20130;-74
2022/10/26 10:56:31;;;;;;;4.90;2.40;;;19.60;99.90;;;;;;7388265;19;21224;-76
2022/10/26 10:59:32;;;;;;;3.55;2.10;;;19.60;99.90;;;;;;7390095;19;20935;-75
2022/10/26 11:02:10;;;;;;;4.55;1.80;;;19.60;99.90;;;;;;7391926;19;20138;-75
2022/10/26 11:04:57;;;;;;;3.63;2.40;;;19.70;99.90;;;;;;7391404;19;20178;-75
2022/10/26 11:07:25;;;;;;;5.13;1.83;;;19.70;99.90;;;;;;7388282;19;20516;-75
2022/10/26 11:09:53;;;;;;;3.63;1.40;;;19.90;99.90;;;;;;7387267;19;20180;-75
2022/10/26 11:12:29;;;;;;;4.32;1.80;;;20.10;99.90;;;;;;7389762;19;20177;-75
2022/10/26 11:15:17;;;;;;;7.10;1.83;;;20.20;99.90;;;;;;7393282;19;20286;-77
2022/10/26 11:18:08;;;;;;;3.00;1.40;;;20.30;99.90;;;;;;7387033;19;20147;-76
2022/10/26 11:20:47;;;;;;;2.90;1.58;;;20.20;99.90;;;;;;7388930;19;20157;-76
2022/10/26 11:23:49;;;;;;;3.15;1.85;;;20.00;99.90;;;;;;7385274;19;20182;-75
2022/10/26 11:26:26;;;;;;;3.80;1.92;;;20.10;99.90;;;;;;7382452;19;20142;-75
2022/10/26 11:29:27;;;;;;;6.60;1.95;;;20.00;99.90;;;;;;7385367;19;20154;-76
2022/10/26 11:31:59;;;;;;;3.30;1.50;;;20.00;99.90;;;;;;7389288;19;20154;-75
2022/10/26 11:34:41;;;;;;;3.92;1.45;;;20.10;99.90;;;;;;7391746;19;20619;-75
2022/10/26 11:37:15;;;;;;;3.05;1.58;;;20.10;99.90;;;;;;7392224;19;20134;-75
2022/10/26 11:39:44;;;;;;;4.55;1.98;;;20.10;99.90;;;;;;7393438;19;20139;-75
2022/10/26 11:42:33;;;;;;;4.13;1.65;;;20.10;99.90;;;;;;7393150;19;20206;-74
2022/10/26 11:45:37;;;;;;;4.25;1.13;;;20.10;99.90;;;;;;7394367;19;20130;-75
2022/10/26 11:48:15;;;;;;;6.20;2.05;;;20.10;99.90;;;;;;7394061;19;20146;-74
2022/10/26 11:50:46;;;;;;;5.13;1.70;;;20.10;99.90;;;;;;7398052;19;20588;-75
2022/10/26 11:53:23;;;;;;;5.13;1.23;;;20.30;99.90;;;;;;7398838;19;20134;-74
2022/10/26 11:55:54;;;;;;;4.43;1.50;;;20.30;99.90;;;;;;7395521;19;20146;-74
2022/10/26 11:58:26;;;;;;;5.03;1.40;;;20.50;99.90;;;;;;7395963;19;20126;-74
2022/10/26 12:01:02;;;;;;;4.13;1.48;;;20.50;99.90;;;;;;7396052;19;20466;-75
2022/10/26 12:03:32;;;;;;;3.92;1.52;;;20.50;99.90;;;;;;7398456;19;20157;-76
2022/10/26 12:05:59;;;;;;;2.75;1.23;;;20.40;99.90;;;;;;7392998;19;20154;-76
2022/10/26 12:08:46;;;;;;;5.57;1.70;;;20.50;99.90;;;;;;7396173;19;20133;-75
2022/10/26 12:11:36;;;;;;;2.28;1.25;;;20.60;99.90;;;;;;7395157;19;20123;-76
2022/10/26 12:14:23;;;;;;;5.57;2.08;;;20.70;99.90;;;;;;7394307;19;20143;-75
2022/10/26 12:16:52;;;;;;;4.55;1.30;;;20.60;99.90;;;;;;7392090;19;20143;-76
2022/10/26 12:19:32;;;;;;;5.82;1.67;;;20.50;99.90;;;;;;7389419;19;20150;-76
2022/10/26 12:21:58;;;;;;;3.25;1.42;;;20.50;99.90;;;;;;7388687;19;20146;-75
2022/10/26 12:24:27;;;;;;;3.28;1.30;;;20.50;99.90;;;;;;7389543;19;20138;-75
2022/10/26 12:27:01;;;;;;;6.20;1.90;;;20.50;99.90;;;;;;7388060;19;20142;-75
2022/10/26 12:29:36;;;;;;;4.60;1.35;;;20.50;99.90;;;;;;7386356;19;20145;-75
2022/10/26 12:32:23;;;;;;;4.03;1.45;;;20.40;99.90;;;;;;7389339;19;20130;-76
2022/10/26 12:34:58;;;;;;;2.55;1.25;;;20.40;99.90;;;;;;7393738;19;20138;-74
2022/10/26 12:37:36;;;;;;;4.43;2.08;;;20.60;99.90;;;;;;7392350;19;20568;-76
2022/10/26 12:40:33;;;;;;;7.35;2.22;;;20.40;99.90;;;;;;7391431;19;20166;-75
2022/10/26 12:43:14;;;;;;;4.22;1.70;;;20.30;99.90;;;;;;7390948;19;20162;-74
2022/10/26 12:46:12;;;;;;;2.58;1.00;;;20.30;99.90;;;;;;7390933;19;20510;-75
2022/10/26 12:48:39;;;;;;;3.38;1.30;;;20.50;99.90;;;;;;7389488;19;20174;-75
2022/10/26 12:51:25;;;;;;;7.18;1.45;;;20.30;99.90;;;;;;7390895;19;20525;-74
2022/10/26 12:54:20;;;;;;;2.88;2.03;;;20.30;99.90;;;;;;7390978;19;20495;-75
2022/10/26 12:57:21;;;;;;;3.67;1.77;;;20.30;99.90;;;;;;7391470;19;20155;-74
2022/10/26 13:00:12;;;;;;;3.45;1.63;;;20.30;99.90;;;;;;7391681;19;20152;-75
2022/10/26 13:03:09;;;;;;;3.50;1.52;;;20.30;99.90;;;;;;7388245;19;20158;-75
2022/10/26 13:06:12;;;;;;;4.15;1.13;;;20.40;99.90;;;;;;7389549;19;20143;-74
2022/10/26 13:08:47;;;;;;;1.63;1.05;;;20.40;99.90;;;;;;7387935;19;20163;-75
2022/10/26 13:11:28;;;;;;;6.57;1.27;;;20.50;99.90;;;;;;7386543;19;20146;-75
2022/10/26 13:13:59;;;;;;;3.95;1.23;;;20.60;99.90;;;;;;7386842;19;20494;-74
2022/10/26 13:16:27;;;;;;;3.95;1.20;;;20.80;99.90;;;;;;7389903;19;20165;-75